sensor_id;sensor_type;location;lat;lon;timestamp;P1;durP1;ratioP1;P2;durP2;ratioP2
10303;SDS011;5197;48.152;8.590;2022-12-20T00:01:48;12.13;;;8.50;;
10303;SDS011;5197;48.152;8.590;2022-12-20T00:04:15;14.33;;;9.97;;
10303;SDS011;5197;48.152;8.590;2022-12-20T00:06:42;15.83;;;9.90;;
10303;SDS011;5197;48.152;8.590;2022-12-20T00:09:10;12.23;;;9.37;;
10303;SDS011;5197;48.152;8.590;2022-12-20T00:11:38;15.10;;;9.90;;
10303;SDS011;5197;48.152;8.590;2022-12-20T00:14:09;14.60;;;9.70;;
10303;SDS011;5197;48.152;8.590;2022-12-20T00:16:36;12.00;;;9.03;;
10303;SDS011;5197;48.152;8.590;2022-12-20T00:19:04;11.20;;;8.70;;
10303;SDS011;5197;48.152;8.590;2022-12-20T00:21:32;12.70;;;9.30;;
10303;SDS011;5197;48.152;8.590;2022-12-20T00:24:00;13.23;;;9.30;;
10303;SDS011;5197;48.152;8.590;2022-12-20T00:26:28;11.90;;;9.10;;
10303;SDS011;5197;48.152;8.590;2022-12-20T00:28:56;11.30;;;8.83;;
10303;SDS011;5197;48.152;8.590;2022-12-20T00:31:24;11.03;;;8.47;;
10303;SDS011;5197;48.152;8.590;2022-12-20T00:33:52;13.07;;;9.07;;
10303;SDS011;5197;48.152;8.590;2022-12-20T00:36:20;14.23;;;9.73;;
10303;SDS011;5197;48.152;8.590;2022-12-20T00:38:49;10.83;;;8.87;;
10303;SDS011;5197;48.152;8.590;2022-12-20T00:41:18;13.90;;;8.93;;
10303;SDS011;5197;48.152;8.590;2022-12-20T00:43:47;13.20;;;9.30;;
10303;SDS011;5197;48.152;8.590;2022-12-20T00:46:16;14.33;;;8.80;;
10303;SDS011;5197;48.152;8.590;2022-12-20T00:48:44;12.73;;;8.40;;
10303;SDS011;5197;48.152;8.590;2022-12-20T00:51:14;12.27;;;7.97;;
10303;SDS011;5197;48.152;8.590;2022-12-20T00:53:42;10.90;;;7.73;;
10303;SDS011;5197;48.152;8.590;2022-12-20T00:56:10;10.93;;;7.97;;
10303;SDS011;5197;48.152;8.590;2022-12-20T00:58:39;10.50;;;8.40;;
10303;SDS011;5197;48.152;8.590;2022-12-20T01:01:41;12.23;;;8.43;;
10303;SDS011;5197;48.152;8.590;2022-12-20T01:04:01;11.27;;;8.80;;
10303;SDS011;5197;48.152;8.590;2022-12-20T01:06:28;11.00;;;8.43;;
10303;SDS011;5197;48.152;8.590;2022-12-20T01:08:56;11.77;;;8.67;;
10303;SDS011;5197;48.152;8.590;2022-12-20T01:11:25;12.20;;;8.50;;
10303;SDS011;5197;48.152;8.590;2022-12-20T01:13:54;12.37;;;8.70;;
10303;SDS011;5197;48.152;8.590;2022-12-20T01:16:24;9.83;;;8.10;;
10303;SDS011;5197;48.152;8.590;2022-12-20T01:18:55;11.07;;;8.07;;
10303;SDS011;5197;48.152;8.590;2022-12-20T01:21:23;12.70;;;8.43;;
10303;SDS011;5197;48.152;8.590;2022-12-20T01:23:52;11.47;;;8.27;;
10303;SDS011;5197;48.152;8.590;2022-12-20T01:26:20;10.20;;;8.23;;
10303;SDS011;5197;48.152;8.590;2022-12-20T01:28:51;13.27;;;8.97;;
10303;SDS011;5197;48.152;8.590;2022-12-20T01:31:20;12.63;;;8.50;;
10303;SDS011;5197;48.152;8.590;2022-12-20T01:33:48;10.03;;;8.10;;
10303;SDS011;5197;48.152;8.590;2022-12-20T01:36:20;11.50;;;8.20;;
10303;SDS011;5197;48.152;8.590;2022-12-20T01:38:59;10.30;;;7.70;;
10303;SDS011;5197;48.152;8.590;2022-12-20T01:41:28;10.13;;;7.83;;
10303;SDS011;5197;48.152;8.590;2022-12-20T01:44:04;11.00;;;7.93;;
10303;SDS011;5197;48.152;8.590;2022-12-20T01:46:52;10.17;;;8.43;;
10303;SDS011;5197;48.152;8.590;2022-12-20T01:51:57;12.43;;;8.40;;
10303;SDS011;5197;48.152;8.590;2022-12-20T01:54:45;11.40;;;8.20;;
10303;SDS011;5197;48.152;8.590;2022-12-20T01:57:14;9.57;;;8.23;;
10303;SDS011;5197;48.152;8.590;2022-12-20T01:59:54;10.80;;;8.07;;
10303;SDS011;5197;48.152;8.590;2022-12-20T02:02:23;10.37;;;8.63;;
10303;SDS011;5197;48.152;8.590;2022-12-20T02:04:50;10.20;;;8.27;;
10303;SDS011;5197;48.152;8.590;2022-12-20T02:07:19;11.77;;;8.67;;
10303;SDS011;5197;48.152;8.590;2022-12-20T02:09:50;11.43;;;8.50;;
10303;SDS011;5197;48.152;8.590;2022-12-20T02:12:20;10.70;;;8.60;;
10303;SDS011;5197;48.152;8.590;2022-12-20T02:20:18;11.30;;;8.90;;
10303;SDS011;5197;48.152;8.590;2022-12-20T02:31:17;13.63;;;9.77;;
10303;SDS011;5197;48.152;8.590;2022-12-20T02:33:47;12.70;;;9.57;;
10303;SDS011;5197;48.152;8.590;2022-12-20T02:36:20;13.70;;;9.83;;
10303;SDS011;5197;48.152;8.590;2022-12-20T02:38:49;14.17;;;9.80;;
10303;SDS011;5197;48.152;8.590;2022-12-20T02:41:18;15.77;;;9.93;;
10303;SDS011;5197;48.152;8.590;2022-12-20T02:43:53;13.47;;;9.70;;
10303;SDS011;5197;48.152;8.590;2022-12-20T02:46:46;13.30;;;9.80;;
10303;SDS011;5197;48.152;8.590;2022-12-20T02:49:16;15.50;;;10.10;;
10303;SDS011;5197;48.152;8.590;2022-12-20T02:51:48;14.50;;;9.83;;
10303;SDS011;5197;48.152;8.590;2022-12-20T02:54:17;12.70;;;9.93;;
10303;SDS011;5197;48.152;8.590;2022-12-20T02:57:48;12.27;;;9.53;;
10303;SDS011;5197;48.152;8.590;2022-12-20T02:59:49;11.60;;;8.70;;
10303;SDS011;5197;48.152;8.590;2022-12-20T03:02:23;12.87;;;9.13;;
10303;SDS011;5197;48.152;8.590;2022-12-20T03:04:52;11.97;;;8.37;;
10303;SDS011;5197;48.152;8.590;2022-12-20T03:07:20;10.90;;;8.70;;
10303;SDS011;5197;48.152;8.590;2022-12-20T03:09:47;9.67;;;7.93;;
10303;SDS011;5197;48.152;8.590;2022-12-20T03:12:14;12.60;;;8.87;;
10303;SDS011;5197;48.152;8.590;2022-12-20T03:14:41;14.60;;;9.27;;
10303;SDS011;5197;48.152;8.590;2022-12-20T03:17:08;12.00;;;8.23;;
10303;SDS011;5197;48.152;8.590;2022-12-20T03:19:36;12.00;;;9.00;;
10303;SDS011;5197;48.152;8.590;2022-12-20T03:22:03;10.43;;;8.23;;
10303;SDS011;5197;48.152;8.590;2022-12-20T03:24:30;12.43;;;8.67;;
10303;SDS011;5197;48.152;8.590;2022-12-20T03:26:58;14.03;;;8.67;;
10303;SDS011;5197;48.152;8.590;2022-12-20T03:29:25;10.63;;;7.87;;
10303;SDS011;5197;48.152;8.590;2022-12-20T03:31:52;10.40;;;7.83;;
10303;SDS011;5197;48.152;8.590;2022-12-20T03:34:19;10.77;;;8.03;;
10303;SDS011;5197;48.152;8.590;2022-12-20T03:36:46;10.60;;;7.60;;
10303;SDS011;5197;48.152;8.590;2022-12-20T03:39:13;12.30;;;8.57;;
10303;SDS011;5197;48.152;8.590;2022-12-20T03:41:40;11.37;;;7.97;;
10303;SDS011;5197;48.152;8.590;2022-12-20T03:44:07;10.47;;;8.33;;
10303;SDS011;5197;48.152;8.590;2022-12-20T03:46:34;11.50;;;7.90;;
10303;SDS011;5197;48.152;8.590;2022-12-20T03:49:01;11.00;;;8.17;;
10303;SDS011;5197;48.152;8.590;2022-12-20T03:51:28;11.20;;;8.17;;
10303;SDS011;5197;48.152;8.590;2022-12-20T03:53:55;10.57;;;7.53;;
10303;SDS011;5197;48.152;8.590;2022-12-20T03:56:22;10.23;;;7.97;;
10303;SDS011;5197;48.152;8.590;2022-12-20T03:58:49;12.23;;;8.20;;
10303;SDS011;5197;48.152;8.590;2022-12-20T04:01:23;11.83;;;8.20;;
10303;SDS011;5197;48.152;8.590;2022-12-20T04:03:52;8.93;;;7.57;;
10303;SDS011;5197;48.152;8.590;2022-12-20T04:06:20;9.50;;;7.67;;
10303;SDS011;5197;48.152;8.590;2022-12-20T04:08:47;9.03;;;7.10;;
10303;SDS011;5197;48.152;8.590;2022-12-20T04:11:15;8.73;;;7.63;;
10303;SDS011;5197;48.152;8.590;2022-12-20T04:13:43;9.87;;;7.67;;
10303;SDS011;5197;48.152;8.590;2022-12-20T04:16:10;11.00;;;7.93;;
10303;SDS011;5197;48.152;8.590;2022-12-20T04:18:38;9.63;;;7.37;;
10303;SDS011;5197;48.152;8.590;2022-12-20T04:21:05;9.83;;;7.13;;
10303;SDS011;5197;48.152;8.590;2022-12-20T04:23:35;8.37;;;7.30;;
10303;SDS011;5197;48.152;8.590;2022-12-20T04:26:04;9.17;;;6.77;;
10303;SDS011;5197;48.152;8.590;2022-12-20T04:28:32;8.70;;;7.37;;
10303;SDS011;5197;48.152;8.590;2022-12-20T04:31:00;9.40;;;6.83;;
10303;SDS011;5197;48.152;8.590;2022-12-20T04:33:27;10.40;;;7.20;;
10303;SDS011;5197;48.152;8.590;2022-12-20T04:35:54;9.67;;;7.43;;
10303;SDS011;5197;48.152;8.590;2022-12-20T04:38:21;8.67;;;6.97;;
10303;SDS011;5197;48.152;8.590;2022-12-20T04:40:50;8.27;;;7.03;;
10303;SDS011;5197;48.152;8.590;2022-12-20T04:43:18;8.10;;;6.50;;
10303;SDS011;5197;48.152;8.590;2022-12-20T04:45:46;8.57;;;6.67;;
10303;SDS011;5197;48.152;8.590;2022-12-20T04:48:14;7.37;;;6.43;;
10303;SDS011;5197;48.152;8.590;2022-12-20T04:51:01;9.57;;;6.93;;
10303;SDS011;5197;48.152;8.590;2022-12-20T04:53:28;8.10;;;6.37;;
10303;SDS011;5197;48.152;8.590;2022-12-20T04:56:18;8.53;;;6.50;;
10303;SDS011;5197;48.152;8.590;2022-12-20T04:58:51;6.97;;;6.17;;
10303;SDS011;5197;48.152;8.590;2022-12-20T05:01:19;11.43;;;6.77;;
10303;SDS011;5197;48.152;8.590;2022-12-20T05:03:47;7.53;;;6.40;;
10303;SDS011;5197;48.152;8.590;2022-12-20T05:06:15;10.13;;;7.20;;
10303;SDS011;5197;48.152;8.590;2022-12-20T05:08:43;8.57;;;6.90;;
10303;SDS011;5197;48.152;8.590;2022-12-20T05:11:10;11.07;;;7.13;;
10303;SDS011;5197;48.152;8.590;2022-12-20T05:13:37;9.97;;;7.43;;
10303;SDS011;5197;48.152;8.590;2022-12-20T05:16:04;7.77;;;6.87;;
10303;SDS011;5197;48.152;8.590;2022-12-20T05:18:31;8.30;;;6.33;;
10303;SDS011;5197;48.152;8.590;2022-12-20T05:20:59;8.73;;;6.80;;
10303;SDS011;5197;48.152;8.590;2022-12-20T05:23:45;8.97;;;6.50;;
10303;SDS011;5197;48.152;8.590;2022-12-20T05:26:35;7.80;;;6.53;;
10303;SDS011;5197;48.152;8.590;2022-12-20T05:29:04;8.50;;;6.80;;
10303;SDS011;5197;48.152;8.590;2022-12-20T05:31:31;7.03;;;6.33;;
10303;SDS011;5197;48.152;8.590;2022-12-20T05:33:58;9.63;;;6.57;;
10303;SDS011;5197;48.152;8.590;2022-12-20T05:36:25;9.27;;;6.43;;
10303;SDS011;5197;48.152;8.590;2022-12-20T05:38:52;10.97;;;7.03;;
10303;SDS011;5197;48.152;8.590;2022-12-20T05:41:28;10.67;;;6.90;;
10303;SDS011;5197;48.152;8.590;2022-12-20T05:43:55;10.80;;;7.53;;
10303;SDS011;5197;48.152;8.590;2022-12-20T05:46:22;12.63;;;8.70;;
10303;SDS011;5197;48.152;8.590;2022-12-20T05:48:50;20.03;;;12.23;;
10303;SDS011;5197;48.152;8.590;2022-12-20T05:51:18;17.30;;;11.43;;
10303;SDS011;5197;48.152;8.590;2022-12-20T05:53:45;11.60;;;7.90;;
10303;SDS011;5197;48.152;8.590;2022-12-20T05:56:11;12.53;;;9.20;;
10303;SDS011;5197;48.152;8.590;2022-12-20T05:58:38;12.53;;;8.40;;
10303;SDS011;5197;48.152;8.590;2022-12-20T06:01:06;10.00;;;8.10;;
10303;SDS011;5197;48.152;8.590;2022-12-20T06:03:34;8.20;;;6.37;;
10303;SDS011;5197;48.152;8.590;2022-12-20T06:06:02;10.27;;;6.73;;
10303;SDS011;5197;48.152;8.590;2022-12-20T06:08:39;6.80;;;6.00;;
10303;SDS011;5197;48.152;8.590;2022-12-20T06:11:06;8.20;;;6.53;;
10303;SDS011;5197;48.152;8.590;2022-12-20T06:13:32;11.43;;;7.63;;
10303;SDS011;5197;48.152;8.590;2022-12-20T06:15:59;7.17;;;6.10;;
10303;SDS011;5197;48.152;8.590;2022-12-20T06:18:26;8.00;;;6.27;;
10303;SDS011;5197;48.152;8.590;2022-12-20T06:20:53;7.43;;;6.23;;
10303;SDS011;5197;48.152;8.590;2022-12-20T06:23:20;11.23;;;6.67;;
10303;SDS011;5197;48.152;8.590;2022-12-20T06:25:48;10.70;;;7.43;;
10303;SDS011;5197;48.152;8.590;2022-12-20T06:28:15;10.57;;;6.37;;
10303;SDS011;5197;48.152;8.590;2022-12-20T06:30:54;9.43;;;6.57;;
10303;SDS011;5197;48.152;8.590;2022-12-20T06:33:22;9.00;;;6.27;;
10303;SDS011;5197;48.152;8.590;2022-12-20T06:35:51;10.40;;;6.03;;
10303;SDS011;5197;48.152;8.590;2022-12-20T06:38:19;12.57;;;5.93;;
10303;SDS011;5197;48.152;8.590;2022-12-20T06:40:46;8.97;;;6.60;;
10303;SDS011;5197;48.152;8.590;2022-12-20T06:43:13;9.83;;;6.33;;
10303;SDS011;5197;48.152;8.590;2022-12-20T06:45:40;9.03;;;6.90;;
10303;SDS011;5197;48.152;8.590;2022-12-20T06:48:08;7.97;;;6.57;;
10303;SDS011;5197;48.152;8.590;2022-12-20T06:50:36;11.27;;;7.03;;
10303;SDS011;5197;48.152;8.590;2022-12-20T06:53:04;8.00;;;6.63;;
10303;SDS011;5197;48.152;8.590;2022-12-20T06:55:32;7.90;;;6.53;;
10303;SDS011;5197;48.152;8.590;2022-12-20T06:57:59;8.70;;;6.40;;
10303;SDS011;5197;48.152;8.590;2022-12-20T07:00:26;6.70;;;5.70;;
10303;SDS011;5197;48.152;8.590;2022-12-20T07:02:53;9.13;;;6.80;;
10303;SDS011;5197;48.152;8.590;2022-12-20T07:05:21;8.53;;;6.90;;
10303;SDS011;5197;48.152;8.590;2022-12-20T07:07:48;11.73;;;7.23;;
10303;SDS011;5197;48.152;8.590;2022-12-20T07:10:15;9.20;;;6.40;;
10303;SDS011;5197;48.152;8.590;2022-12-20T07:12:42;8.03;;;5.40;;
10303;SDS011;5197;48.152;8.590;2022-12-20T07:15:14;5.57;;;4.97;;
10303;SDS011;5197;48.152;8.590;2022-12-20T07:17:41;6.60;;;4.60;;
10303;SDS011;5197;48.152;8.590;2022-12-20T07:20:09;8.13;;;4.60;;
10303;SDS011;5197;48.152;8.590;2022-12-20T07:22:39;5.93;;;5.13;;
10303;SDS011;5197;48.152;8.590;2022-12-20T07:25:07;6.23;;;4.40;;
10303;SDS011;5197;48.152;8.590;2022-12-20T07:27:34;6.03;;;5.20;;
10303;SDS011;5197;48.152;8.590;2022-12-20T07:30:02;9.73;;;5.37;;
10303;SDS011;5197;48.152;8.590;2022-12-20T07:32:30;14.20;;;8.50;;
10303;SDS011;5197;48.152;8.590;2022-12-20T07:34:57;12.13;;;7.17;;
10303;SDS011;5197;48.152;8.590;2022-12-20T07:37:25;9.97;;;6.10;;
10303;SDS011;5197;48.152;8.590;2022-12-20T07:39:54;11.37;;;5.97;;
10303;SDS011;5197;48.152;8.590;2022-12-20T07:42:21;12.47;;;6.00;;
10303;SDS011;5197;48.152;8.590;2022-12-20T07:44:48;9.27;;;6.13;;
10303;SDS011;5197;48.152;8.590;2022-12-20T07:47:15;7.97;;;5.60;;
10303;SDS011;5197;48.152;8.590;2022-12-20T07:49:42;7.23;;;4.87;;
10303;SDS011;5197;48.152;8.590;2022-12-20T07:52:09;4.90;;;4.40;;
10303;SDS011;5197;48.152;8.590;2022-12-20T07:54:41;6.13;;;4.57;;
10303;SDS011;5197;48.152;8.590;2022-12-20T07:57:21;6.13;;;4.60;;
10303;SDS011;5197;48.152;8.590;2022-12-20T08:00:10;5.50;;;4.30;;
10303;SDS011;5197;48.152;8.590;2022-12-20T08:02:39;4.63;;;4.23;;
10303;SDS011;5197;48.152;8.590;2022-12-20T08:05:13;4.53;;;4.03;;
10303;SDS011;5197;48.152;8.590;2022-12-20T08:07:41;9.13;;;6.37;;
10303;SDS011;5197;48.152;8.590;2022-12-20T08:10:10;10.77;;;5.03;;
10303;SDS011;5197;48.152;8.590;2022-12-20T08:12:39;6.07;;;5.17;;
10303;SDS011;5197;48.152;8.590;2022-12-20T08:15:07;6.80;;;5.60;;
10303;SDS011;5197;48.152;8.590;2022-12-20T08:17:35;8.97;;;5.93;;
10303;SDS011;5197;48.152;8.590;2022-12-20T08:20:02;11.17;;;5.97;;
10303;SDS011;5197;48.152;8.590;2022-12-20T08:22:31;14.70;;;8.57;;
10303;SDS011;5197;48.152;8.590;2022-12-20T08:24:58;14.27;;;8.83;;
10303;SDS011;5197;48.152;8.590;2022-12-20T08:27:25;9.90;;;7.33;;
10303;SDS011;5197;48.152;8.590;2022-12-20T08:29:52;10.53;;;7.43;;
10303;SDS011;5197;48.152;8.590;2022-12-20T08:32:19;7.43;;;5.90;;
10303;SDS011;5197;48.152;8.590;2022-12-20T08:34:46;7.57;;;5.43;;
10303;SDS011;5197;48.152;8.590;2022-12-20T08:37:16;8.20;;;5.10;;
10303;SDS011;5197;48.152;8.590;2022-12-20T08:39:44;6.73;;;4.80;;
10303;SDS011;5197;48.152;8.590;2022-12-20T08:42:11;4.97;;;4.40;;
10303;SDS011;5197;48.152;8.590;2022-12-20T08:44:38;6.03;;;5.30;;
10303;SDS011;5197;48.152;8.590;2022-12-20T08:47:05;7.13;;;5.57;;
10303;SDS011;5197;48.152;8.590;2022-12-20T08:49:32;6.90;;;4.70;;
10303;SDS011;5197;48.152;8.590;2022-12-20T08:51:59;7.50;;;4.50;;
10303;SDS011;5197;48.152;8.590;2022-12-20T08:54:26;7.87;;;4.33;;
10303;SDS011;5197;48.152;8.590;2022-12-20T08:56:53;4.83;;;4.23;;
10303;SDS011;5197;48.152;8.590;2022-12-20T08:59:20;7.70;;;4.80;;
10303;SDS011;5197;48.152;8.590;2022-12-20T09:01:47;7.17;;;5.77;;
10303;SDS011;5197;48.152;8.590;2022-12-20T09:04:16;6.90;;;5.20;;
10303;SDS011;5197;48.152;8.590;2022-12-20T09:06:42;9.37;;;5.10;;
10303;SDS011;5197;48.152;8.590;2022-12-20T09:09:10;8.30;;;5.60;;
10303;SDS011;5197;48.152;8.590;2022-12-20T09:11:36;6.70;;;4.93;;
10303;SDS011;5197;48.152;8.590;2022-12-20T09:14:04;8.37;;;4.97;;
10303;SDS011;5197;48.152;8.590;2022-12-20T09:16:31;5.97;;;4.30;;
10303;SDS011;5197;48.152;8.590;2022-12-20T09:18:59;6.60;;;4.87;;
10303;SDS011;5197;48.152;8.590;2022-12-20T09:21:31;7.03;;;4.57;;
10303;SDS011;5197;48.152;8.590;2022-12-20T09:23:59;6.10;;;4.83;;
10303;SDS011;5197;48.152;8.590;2022-12-20T09:26:26;5.80;;;4.00;;
10303;SDS011;5197;48.152;8.590;2022-12-20T09:28:53;6.07;;;3.70;;
10303;SDS011;5197;48.152;8.590;2022-12-20T09:31:21;6.73;;;4.60;;
10303;SDS011;5197;48.152;8.590;2022-12-20T09:33:53;8.43;;;4.43;;
10303;SDS011;5197;48.152;8.590;2022-12-20T09:36:22;7.23;;;4.70;;
10303;SDS011;5197;48.152;8.590;2022-12-20T09:38:49;8.07;;;4.47;;
10303;SDS011;5197;48.152;8.590;2022-12-20T09:43:50;4.93;;;4.07;;
10303;SDS011;5197;48.152;8.590;2022-12-20T09:46:17;5.77;;;4.20;;
10303;SDS011;5197;48.152;8.590;2022-12-20T09:48:44;4.13;;;3.83;;
10303;SDS011;5197;48.152;8.590;2022-12-20T10:01:38;4.80;;;3.57;;
10303;SDS011;5197;48.152;8.590;2022-12-20T10:04:24;7.30;;;4.43;;
10303;SDS011;5197;48.152;8.590;2022-12-20T10:07:41;4.83;;;4.30;;
10303;SDS011;5197;48.152;8.590;2022-12-20T10:13:41;41.27;;;13.47;;
10303;SDS011;5197;48.152;8.590;2022-12-20T10:16:33;53.50;;;16.83;;
10303;SDS011;5197;48.152;8.590;2022-12-20T10:19:05;55.83;;;17.47;;
10303;SDS011;5197;48.152;8.590;2022-12-20T10:22:10;78.37;;;23.47;;
10303;SDS011;5197;48.152;8.590;2022-12-20T10:25:05;29.43;;;12.07;;
10303;SDS011;5197;48.152;8.590;2022-12-20T10:27:41;12.40;;;6.83;;
10303;SDS011;5197;48.152;8.590;2022-12-20T10:30:20;9.33;;;6.10;;
10303;SDS011;5197;48.152;8.590;2022-12-20T10:32:50;11.73;;;5.20;;
10303;SDS011;5197;48.152;8.590;2022-12-20T10:40:37;7.27;;;4.67;;
10303;SDS011;5197;48.152;8.590;2022-12-20T10:43:41;8.30;;;4.03;;
10303;SDS011;5197;48.152;8.590;2022-12-20T10:46:14;4.00;;;3.70;;
10303;SDS011;5197;48.152;8.590;2022-12-20T10:48:45;3.47;;;3.17;;
10303;SDS011;5197;48.152;8.590;2022-12-20T10:51:15;5.67;;;3.07;;
10303;SDS011;5197;48.152;8.590;2022-12-20T10:56:29;4.87;;;4.37;;
10303;SDS011;5197;48.152;8.590;2022-12-20T10:59:41;5.17;;;4.63;;
10303;SDS011;5197;48.152;8.590;2022-12-20T11:01:51;5.83;;;4.43;;
10303;SDS011;5197;48.152;8.590;2022-12-20T11:04:29;6.37;;;4.67;;
10303;SDS011;5197;48.152;8.590;2022-12-20T11:06:58;4.60;;;3.90;;
10303;SDS011;5197;48.152;8.590;2022-12-20T11:11:59;4.90;;;3.87;;
10303;SDS011;5197;48.152;8.590;2022-12-20T11:14:42;10.27;;;6.67;;
10303;SDS011;5197;48.152;8.590;2022-12-20T11:37:08;7.07;;;5.77;;
10303;SDS011;5197;48.152;8.590;2022-12-20T11:54:40;7.00;;;3.57;;
10303;SDS011;5197;48.152;8.590;2022-12-20T11:57:17;4.07;;;3.10;;
10303;SDS011;5197;48.152;8.590;2022-12-20T11:59:54;3.57;;;3.23;;
10303;SDS011;5197;48.152;8.590;2022-12-20T12:05:18;3.93;;;3.50;;
10303;SDS011;5197;48.152;8.590;2022-12-20T12:07:56;6.20;;;3.53;;
10303;SDS011;5197;48.152;8.590;2022-12-20T12:10:30;9.33;;;3.67;;
10303;SDS011;5197;48.152;8.590;2022-12-20T12:13:05;4.03;;;3.27;;
10303;SDS011;5197;48.152;8.590;2022-12-20T12:18:37;6.20;;;3.30;;
10303;SDS011;5197;48.152;8.590;2022-12-20T12:21:19;3.73;;;3.43;;
10303;SDS011;5197;48.152;8.590;2022-12-20T12:26:34;5.43;;;3.73;;
10303;SDS011;5197;48.152;8.590;2022-12-20T12:37:06;9.03;;;4.60;;
10303;SDS011;5197;48.152;8.590;2022-12-20T12:46:07;7.97;;;4.87;;
10303;SDS011;5197;48.152;8.590;2022-12-20T12:48:50;4.93;;;4.20;;
10303;SDS011;5197;48.152;8.590;2022-12-20T12:51:28;5.07;;;3.17;;
10303;SDS011;5197;48.152;8.590;2022-12-20T12:54:13;3.60;;;3.30;;
10303;SDS011;5197;48.152;8.590;2022-12-20T12:56:45;4.20;;;3.43;;
10303;SDS011;5197;48.152;8.590;2022-12-20T13:12:55;6.63;;;3.93;;
10303;SDS011;5197;48.152;8.590;2022-12-20T13:17:56;7.07;;;3.90;;
10303;SDS011;5197;48.152;8.590;2022-12-20T13:20:26;3.47;;;3.13;;
10303;SDS011;5197;48.152;8.590;2022-12-20T13:25:51;3.47;;;3.17;;
10303;SDS011;5197;48.152;8.590;2022-12-20T13:31:33;3.23;;;2.90;;
10303;SDS011;5197;48.152;8.590;2022-12-20T13:33:39;3.20;;;2.70;;
10303;SDS011;5197;48.152;8.590;2022-12-20T13:38:50;4.37;;;3.17;;
10303;SDS011;5197;48.152;8.590;2022-12-20T13:46:49;5.27;;;3.50;;
10303;SDS011;5197;48.152;8.590;2022-12-20T13:49:28;3.33;;;2.63;;
10303;SDS011;5197;48.152;8.590;2022-12-20T13:55:31;4.13;;;3.55;;
10303;SDS011;5197;48.152;8.590;2022-12-20T13:58:03;5.03;;;2.97;;
10303;SDS011;5197;48.152;8.590;2022-12-20T14:00:33;3.22;;;2.92;;
10303;SDS011;5197;48.152;8.590;2022-12-20T14:03:00;3.73;;;2.90;;
10303;SDS011;5197;48.152;8.590;2022-12-20T14:05:32;4.03;;;2.57;;
10303;SDS011;5197;48.152;8.590;2022-12-20T14:08:12;3.87;;;2.97;;
10303;SDS011;5197;48.152;8.590;2022-12-20T14:10:44;3.70;;;2.70;;
10303;SDS011;5197;48.152;8.590;2022-12-20T14:13:22;3.80;;;3.17;;
10303;SDS011;5197;48.152;8.590;2022-12-20T14:15:50;3.80;;;3.50;;
10303;SDS011;5197;48.152;8.590;2022-12-20T14:18:20;5.97;;;3.40;;
10303;SDS011;5197;48.152;8.590;2022-12-20T14:20:50;7.33;;;4.20;;
10303;SDS011;5197;48.152;8.590;2022-12-20T14:23:38;4.23;;;3.40;;
10303;SDS011;5197;48.152;8.590;2022-12-20T14:26:11;5.60;;;3.77;;
10303;SDS011;5197;48.152;8.590;2022-12-20T14:28:43;5.57;;;3.77;;
10303;SDS011;5197;48.152;8.590;2022-12-20T14:36:39;10.90;;;5.07;;
10303;SDS011;5197;48.152;8.590;2022-12-20T14:42:01;9.70;;;5.57;;
10303;SDS011;5197;48.152;8.590;2022-12-20T14:44:37;8.37;;;5.00;;
10303;SDS011;5197;48.152;8.590;2022-12-20T14:49:46;6.03;;;4.60;;
10303;SDS011;5197;48.152;8.590;2022-12-20T14:52:16;7.20;;;4.13;;
10303;SDS011;5197;48.152;8.590;2022-12-20T14:54:49;6.67;;;4.30;;
10303;SDS011;5197;48.152;8.590;2022-12-20T15:02:40;5.80;;;3.80;;
10303;SDS011;5197;48.152;8.590;2022-12-20T15:10:41;8.33;;;4.27;;
10303;SDS011;5197;48.152;8.590;2022-12-20T15:13:16;12.30;;;5.60;;
10303;SDS011;5197;48.152;8.590;2022-12-20T15:15:44;6.53;;;3.80;;
10303;SDS011;5197;48.152;8.590;2022-12-20T15:18:13;4.57;;;3.80;;
10303;SDS011;5197;48.152;8.590;2022-12-20T15:20:42;3.10;;;2.90;;
10303;SDS011;5197;48.152;8.590;2022-12-20T15:23:14;3.67;;;3.27;;
10303;SDS011;5197;48.152;8.590;2022-12-20T15:25:46;6.57;;;3.50;;
10303;SDS011;5197;48.152;8.590;2022-12-20T15:28:14;4.83;;;3.37;;
10303;SDS011;5197;48.152;8.590;2022-12-20T15:30:47;3.10;;;2.80;;
10303;SDS011;5197;48.152;8.590;2022-12-20T15:33:25;3.27;;;2.97;;
10303;SDS011;5197;48.152;8.590;2022-12-20T15:35:55;4.20;;;3.10;;
10303;SDS011;5197;48.152;8.590;2022-12-20T15:38:23;4.50;;;3.00;;
10303;SDS011;5197;48.152;8.590;2022-12-20T15:41:33;3.13;;;2.87;;
10303;SDS011;5197;48.152;8.590;2022-12-20T15:44:00;3.40;;;3.10;;
10303;SDS011;5197;48.152;8.590;2022-12-20T15:46:30;4.00;;;3.57;;
10303;SDS011;5197;48.152;8.590;2022-12-20T15:48:58;3.97;;;3.23;;
10303;SDS011;5197;48.152;8.590;2022-12-20T15:51:27;3.60;;;3.00;;
10303;SDS011;5197;48.152;8.590;2022-12-20T15:54:20;5.33;;;2.70;;
10303;SDS011;5197;48.152;8.590;2022-12-20T15:56:54;6.20;;;3.30;;
10303;SDS011;5197;48.152;8.590;2022-12-20T15:59:22;3.67;;;3.20;;
10303;SDS011;5197;48.152;8.590;2022-12-20T16:04:51;3.30;;;3.00;;
10303;SDS011;5197;48.152;8.590;2022-12-20T16:07:19;6.40;;;3.20;;
10303;SDS011;5197;48.152;8.590;2022-12-20T16:09:47;3.70;;;3.40;;
10303;SDS011;5197;48.152;8.590;2022-12-20T16:12:18;5.97;;;3.80;;
10303;SDS011;5197;48.152;8.590;2022-12-20T16:14:49;4.47;;;4.07;;
10303;SDS011;5197;48.152;8.590;2022-12-20T16:17:16;5.93;;;5.33;;
10303;SDS011;5197;48.152;8.590;2022-12-20T16:19:43;5.90;;;4.13;;
10303;SDS011;5197;48.152;8.590;2022-12-20T16:22:21;4.97;;;4.20;;
10303;SDS011;5197;48.152;8.590;2022-12-20T16:24:52;5.13;;;3.33;;
10303;SDS011;5197;48.152;8.590;2022-12-20T16:27:19;4.03;;;3.57;;
10303;SDS011;5197;48.152;8.590;2022-12-20T16:29:46;4.73;;;3.53;;
10303;SDS011;5197;48.152;8.590;2022-12-20T16:32:13;6.27;;;3.90;;
10303;SDS011;5197;48.152;8.590;2022-12-20T16:34:45;5.50;;;3.80;;
10303;SDS011;5197;48.152;8.590;2022-12-20T16:37:13;5.37;;;3.90;;
10303;SDS011;5197;48.152;8.590;2022-12-20T16:39:41;4.30;;;3.90;;
10303;SDS011;5197;48.152;8.590;2022-12-20T16:42:18;5.67;;;4.33;;
10303;SDS011;5197;48.152;8.590;2022-12-20T16:44:52;8.60;;;3.73;;
10303;SDS011;5197;48.152;8.590;2022-12-20T16:47:20;4.10;;;3.70;;
10303;SDS011;5197;48.152;8.590;2022-12-20T16:49:47;6.60;;;4.33;;
10303;SDS011;5197;48.152;8.590;2022-12-20T16:52:19;4.67;;;4.17;;
10303;SDS011;5197;48.152;8.590;2022-12-20T16:54:48;6.07;;;3.90;;
10303;SDS011;5197;48.152;8.590;2022-12-20T16:57:15;4.90;;;3.77;;
10303;SDS011;5197;48.152;8.590;2022-12-20T16:59:42;4.10;;;3.50;;
10303;SDS011;5197;48.152;8.590;2022-12-20T17:02:21;6.27;;;4.00;;
10303;SDS011;5197;48.152;8.590;2022-12-20T17:04:49;4.50;;;3.70;;
10303;SDS011;5197;48.152;8.590;2022-12-20T17:07:16;6.63;;;4.97;;
10303;SDS011;5197;48.152;8.590;2022-12-20T17:09:43;6.87;;;5.20;;
10303;SDS011;5197;48.152;8.590;2022-12-20T17:12:14;5.77;;;4.70;;
10303;SDS011;5197;48.152;8.590;2022-12-20T17:14:42;6.50;;;4.30;;
10303;SDS011;5197;48.152;8.590;2022-12-20T17:17:10;6.13;;;4.20;;
10303;SDS011;5197;48.152;8.590;2022-12-20T17:19:37;6.40;;;4.80;;
10303;SDS011;5197;48.152;8.590;2022-12-20T17:22:04;6.47;;;5.20;;
10303;SDS011;5197;48.152;8.590;2022-12-20T17:24:50;6.07;;;4.97;;
10303;SDS011;5197;48.152;8.590;2022-12-20T17:27:17;6.27;;;5.20;;
10303;SDS011;5197;48.152;8.590;2022-12-20T17:29:44;5.50;;;5.00;;
10303;SDS011;5197;48.152;8.590;2022-12-20T17:32:21;5.00;;;4.50;;
10303;SDS011;5197;48.152;8.590;2022-12-20T17:34:49;6.47;;;5.00;;
10303;SDS011;5197;48.152;8.590;2022-12-20T17:37:16;6.07;;;4.80;;
10303;SDS011;5197;48.152;8.590;2022-12-20T17:39:43;6.13;;;4.90;;
10303;SDS011;5197;48.152;8.590;2022-12-20T17:42:13;6.30;;;5.20;;
10303;SDS011;5197;48.152;8.590;2022-12-20T17:44:41;5.93;;;5.30;;
10303;SDS011;5197;48.152;8.590;2022-12-20T17:47:08;7.17;;;5.07;;
10303;SDS011;5197;48.152;8.590;2022-12-20T17:49:37;9.10;;;5.27;;
10303;SDS011;5197;48.152;8.590;2022-12-20T17:52:04;8.60;;;5.50;;
10303;SDS011;5197;48.152;8.590;2022-12-20T17:54:31;6.40;;;4.80;;
10303;SDS011;5197;48.152;8.590;2022-12-20T17:57:10;9.97;;;7.20;;